sensor_id;sensor_type;location;lat;lon;timestamp;temperature;humidity
29817;DHT22;16805;52.956;5.906;2024-03-23T01:26:43;7.60;99.90
29817;DHT22;16805;52.956;5.906;2024-03-23T01:29:11;7.60;99.90
29817;DHT22;16805;52.956;5.906;2024-03-23T01:31:38;7.60;99.90
29817;DHT22;16805;52.956;5.906;2024-03-23T01:34:24;7.60;99.90
29817;DHT22;16805;52.956;5.906;2024-03-23T01:36:52;7.50;99.90
29817;DHT22;16805;52.956;5.906;2024-03-23T01:39:20;7.50;99.90
29817;DHT22;16805;52.956;5.906;2024-03-23T01:41:49;7.50;99.90
29817;DHT22;16805;52.956;5.906;2024-03-23T01:44:20;7.60;99.90
29817;DHT22;16805;52.956;5.906;2024-03-23T01:46:49;7.60;99.90
29817;DHT22;16805;52.956;5.906;2024-03-23T01:49:20;7.60;99.90
29817;DHT22;16805;52.956;5.906;2024-03-23T01:51:47;7.60;99.90
29817;DHT22;16805;52.956;5.906;2024-03-23T01:54:16;7.60;99.90
29817;DHT22;16805;52.956;5.906;2024-03-23T01:56:48;7.60;99.90
29817;DHT22;16805;52.956;5.906;2024-03-23T01:59:14;7.60;99.90
29817;DHT22;16805;52.956;5.906;2024-03-23T02:01:40;7.60;99.90
29817;DHT22;16805;52.956;5.906;2024-03-23T02:04:06;7.60;99.90
29817;DHT22;16805;52.956;5.906;2024-03-23T02:06:34;7.60;99.90
29817;DHT22;16805;52.956;5.906;2024-03-23T02:09:00;7.60;99.90
29817;DHT22;16805;52.956;5.906;2024-03-23T02:11:27;7.60;99.90
29817;DHT22;16805;52.956;5.906;2024-03-23T02:13:53;7.50;99.90
29817;DHT22;16805;52.956;5.906;2024-03-23T02:16:19;7.50;99.90
29817;DHT22;16805;52.956;5.906;2024-03-23T02:18:47;7.60;99.90
29817;DHT22;16805;52.956;5.906;2024-03-23T02:21:19;7.50;99.90
29817;DHT22;16805;52.956;5.906;2024-03-23T02:23:53;7.50;99.90
29817;DHT22;16805;52.956;5.906;2024-03-23T02:26:38;7.50;99.90
29817;DHT22;16805;52.956;5.906;2024-03-23T02:29:05;7.50;99.90
29817;DHT22;16805;52.956;5.906;2024-03-23T02:31:34;7.50;99.90
29817;DHT22;16805;52.956;5.906;2024-03-23T02:34:24;7.40;99.90
29817;DHT22;16805;52.956;5.906;2024-03-23T02:37:35;7.40;99.90
29817;DHT22;16805;52.956;5.906;2024-03-23T02:40:02;7.40;99.90
29817;DHT22;16805;52.956;5.906;2024-03-23T02:42:34;7.40;99.90
29817;DHT22;16805;52.956;5.906;2024-03-23T02:45:00;7.40;99.90
29817;DHT22;16805;52.956;5.906;2024-03-23T02:47:27;7.40;99.90
29817;DHT22;16805;52.956;5.906;2024-03-23T02:49:54;7.30;99.90
29817;DHT22;16805;52.956;5.906;2024-03-23T02:52:20;7.30;99.90
29817;DHT22;16805;52.956;5.906;2024-03-23T02:54:48;7.30;99.90
29817;DHT22;16805;52.956;5.906;2024-03-23T02:57:13;7.30;99.90
29817;DHT22;16805;52.956;5.906;2024-03-23T02:59:40;7.20;99.90
29817;DHT22;16805;52.956;5.906;2024-03-23T03:02:05;7.20;99.90
29817;DHT22;16805;52.956;5.906;2024-03-23T03:04:32;7.20;99.90
29817;DHT22;16805;52.956;5.906;2024-03-23T03:07:04;7.20;99.90
29817;DHT22;16805;52.956;5.906;2024-03-23T03:09:33;7.10;99.90
29817;DHT22;16805;52.956;5.906;2024-03-23T03:12:03;7.00;99.90
29817;DHT22;16805;52.956;5.906;2024-03-23T03:14:29;7.00;99.90
29817;DHT22;16805;52.956;5.906;2024-03-23T03:16:58;7.00;99.90
29817;DHT22;16805;52.956;5.906;2024-03-23T03:19:23;6.90;99.90
29817;DHT22;16805;52.956;5.906;2024-03-23T03:21:53;6.90;99.90
29817;DHT22;16805;52.956;5.906;2024-03-23T03:24:19;6.90;99.90
29817;DHT22;16805;52.956;5.906;2024-03-23T03:26:48;6.90;99.90
29817;DHT22;16805;52.956;5.906;2024-03-23T03:29:24;6.90;99.90
29817;DHT22;16805;52.956;5.906;2024-03-23T03:32:07;6.80;99.90
29817;DHT22;16805;52.956;5.906;2024-03-23T03:34:33;6.80;99.90
29817;DHT22;16805;52.956;5.906;2024-03-23T03:37:00;6.90;99.90
29817;DHT22;16805;52.956;5.906;2024-03-23T03:39:29;6.90;99.90
29817;DHT22;16805;52.956;5.906;2024-03-23T03:41:57;6.90;99.90
29817;DHT22;16805;52.956;5.906;2024-03-23T03:44:24;6.90;99.90
29817;DHT22;16805;52.956;5.906;2024-03-23T03:46:51;6.90;99.90
29817;DHT22;16805;52.956;5.906;2024-03-23T03:49:18;6.90;99.90
29817;DHT22;16805;52.956;5.906;2024-03-23T03:51:49;6.90;99.90
29817;DHT22;16805;52.956;5.906;2024-03-23T03:54:16;6.80;99.90
29817;DHT22;16805;52.956;5.906;2024-03-23T03:56:43;6.80;99.90
29817;DHT22;16805;52.956;5.906;2024-03-23T03:59:14;6.80;99.90
29817;DHT22;16805;52.956;5.906;2024-03-23T04:01:46;6.70;99.90
29817;DHT22;16805;52.956;5.906;2024-03-23T04:04:32;6.70;99.90
29817;DHT22;16805;52.956;5.906;2024-03-23T04:07:24;6.70;99.90
29817;DHT22;16805;52.956;5.906;2024-03-23T04:09:51;6.60;99.90
29817;DHT22;16805;52.956;5.906;2024-03-23T04:12:21;6.60;99.90
29817;DHT22;16805;52.956;5.906;2024-03-23T04:14:52;6.50;99.90
29817;DHT22;16805;52.956;5.906;2024-03-23T04:17:47;6.50;99.90
29817;DHT22;16805;52.956;5.906;2024-03-23T04:20:44;6.50;99.90
29817;DHT22;16805;52.956;5.906;2024-03-23T04:23:28;6.50;99.90
29817;DHT22;16805;52.956;5.906;2024-03-23T04:26:03;6.50;99.90
29817;DHT22;16805;52.956;5.906;2024-03-23T04:28:30;6.50;99.90
29817;DHT22;16805;52.956;5.906;2024-03-23T04:30:57;6.40;99.90
29817;DHT22;16805;52.956;5.906;2024-03-23T04:33:24;6.40;99.90
29817;DHT22;16805;52.956;5.906;2024-03-23T04:35:52;6.40;99.90
29817;DHT22;16805;52.956;5.906;2024-03-23T04:38:37;6.40;99.90
29817;DHT22;16805;52.956;5.906;2024-03-23T04:42:04;6.40;99.90
29817;DHT22;16805;52.956;5.906;2024-03-23T04:45:17;6.40;99.90
29817;DHT22;16805;52.956;5.906;2024-03-23T04:47:57;6.40;99.90
29817;DHT22;16805;52.956;5.906;2024-03-23T04:50:31;6.40;99.90
29817;DHT22;16805;52.956;5.906;2024-03-23T04:53:01;6.40;99.90
29817;DHT22;16805;52.956;5.906;2024-03-23T04:55:26;6.40;99.90
29817;DHT22;16805;52.956;5.906;2024-03-23T04:57:53;6.50;99.90
29817;DHT22;16805;52.956;5.906;2024-03-23T05:00:19;6.50;99.90
29817;DHT22;16805;52.956;5.906;2024-03-23T05:02:45;6.50;99.90
29817;DHT22;16805;52.956;5.906;2024-03-23T05:05:14;6.50;99.90
29817;DHT22;16805;52.956;5.906;2024-03-23T05:07:43;6.50;99.90
29817;DHT22;16805;52.956;5.906;2024-03-23T05:10:14;6.50;99.90
29817;DHT22;16805;52.956;5.906;2024-03-23T05:13:02;6.50;99.90
29817;DHT22;16805;52.956;5.906;2024-03-23T05:15:35;6.50;99.90
29817;DHT22;16805;52.956;5.906;2024-03-23T05:18:09;6.40;99.90
29817;DHT22;16805;52.956;5.906;2024-03-23T05:20:39;6.40;99.90
29817;DHT22;16805;52.956;5.906;2024-03-23T05:23:29;6.40;99.90
29817;DHT22;16805;52.956;5.906;2024-03-23T05:26:18;6.30;99.90
29817;DHT22;16805;52.956;5.906;2024-03-23T05:29:11;6.30;99.90
29817;DHT22;16805;52.956;5.906;2024-03-23T05:31:43;6.40;99.90
29817;DHT22;16805;52.956;5.906;2024-03-23T05:34:32;6.40;99.90
29817;DHT22;16805;52.956;5.906;2024-03-23T05:37:10;6.50;99.90
29817;DHT22;16805;52.956;5.906;2024-03-23T05:39:37;6.40;99.90
29817;DHT22;16805;52.956;5.906;2024-03-23T05:42:03;6.40;99.90
29817;DHT22;16805;52.956;5.906;2024-03-23T05:44:29;6.40;99.90
29817;DHT22;16805;52.956;5.906;2024-03-23T05:46:55;6.40;99.90
29817;DHT22;16805;52.956;5.906;2024-03-23T05:49:22;6.40;99.90
29817;DHT22;16805;52.956;5.906;2024-03-23T05:51:48;6.40;99.90
29817;DHT22;16805;52.956;5.906;2024-03-23T05:54:14;6.40;99.90
29817;DHT22;16805;52.956;5.906;2024-03-23T05:56:40;6.50;99.90
29817;DHT22;16805;52.956;5.906;2024-03-23T05:59:08;6.50;99.90
29817;DHT22;16805;52.956;5.906;2024-03-23T06:01:36;6.50;99.90
29817;DHT22;16805;52.956;5.906;2024-03-23T06:04:05;6.60;99.90
29817;DHT22;16805;52.956;5.906;2024-03-23T06:06:45;6.60;99.90
29817;DHT22;16805;52.956;5.906;2024-03-23T06:09:49;6.60;99.90
29817;DHT22;16805;52.956;5.906;2024-03-23T06:12:19;6.60;99.90
29817;DHT22;16805;52.956;5.906;2024-03-23T06:15:01;6.70;99.90
29817;DHT22;16805;52.956;5.906;2024-03-23T06:17:29;6.70;99.90
29817;DHT22;16805;52.956;5.906;2024-03-23T06:20:01;6.70;99.90
29817;DHT22;16805;52.956;5.906;2024-03-23T06:22:38;6.80;99.90
29817;DHT22;16805;52.956;5.906;2024-03-23T06:25:06;6.80;99.90
29817;DHT22;16805;52.956;5.906;2024-03-23T06:27:34;6.80;99.90
29817;DHT22;16805;52.956;5.906;2024-03-23T06:30:21;6.80;99.90
29817;DHT22;16805;52.956;5.906;2024-03-23T06:32:47;6.90;99.90
29817;DHT22;16805;52.956;5.906;2024-03-23T06:35:13;7.00;99.90
29817;DHT22;16805;52.956;5.906;2024-03-23T06:37:39;7.00;99.90
29817;DHT22;16805;52.956;5.906;2024-03-23T06:40:08;7.10;99.90
29817;DHT22;16805;52.956;5.906;2024-03-23T06:42:35;7.20;99.90
29817;DHT22;16805;52.956;5.906;2024-03-23T06:45:02;7.30;99.90
29817;DHT22;16805;52.956;5.906;2024-03-23T06:47:30;7.40;99.90
29817;DHT22;16805;52.956;5.906;2024-03-23T06:49:55;7.40;99.90
29817;DHT22;16805;52.956;5.906;2024-03-23T06:52:21;7.40;99.90
29817;DHT22;16805;52.956;5.906;2024-03-23T06:54:46;7.40;99.90
29817;DHT22;16805;52.956;5.906;2024-03-23T06:57:14;7.50;99.90
29817;DHT22;16805;52.956;5.906;2024-03-23T06:59:40;7.50;99.90
29817;DHT22;16805;52.956;5.906;2024-03-23T07:02:06;7.50;99.90
29817;DHT22;16805;52.956;5.906;2024-03-23T07:04:34;7.50;99.90
29817;DHT22;16805;52.956;5.906;2024-03-23T07:06:59;7.40;99.90
29817;DHT22;16805;52.956;5.906;2024-03-23T07:09:27;7.30;99.90
29817;DHT22;16805;52.956;5.906;2024-03-23T07:11:56;7.30;99.90
29817;DHT22;16805;52.956;5.906;2024-03-23T07:14:23;7.30;99.90
29817;DHT22;16805;52.956;5.906;2024-03-23T07:16:49;7.20;99.90
29817;DHT22;16805;52.956;5.906;2024-03-23T07:19:18;7.20;99.90
29817;DHT22;16805;52.956;5.906;2024-03-23T07:21:44;7.10;99.90
29817;DHT22;16805;52.956;5.906;2024-03-23T07:24:10;7.10;99.90
29817;DHT22;16805;52.956;5.906;2024-03-23T07:26:36;7.10;99.90
29817;DHT22;16805;52.956;5.906;2024-03-23T07:29:01;7.00;99.90
29817;DHT22;16805;52.956;5.906;2024-03-23T07:31:27;7.00;99.90
29817;DHT22;16805;52.956;5.906;2024-03-23T07:33:53;7.00;99.90
29817;DHT22;16805;52.956;5.906;2024-03-23T07:36:18;6.90;99.90
29817;DHT22;16805;52.956;5.906;2024-03-23T07:38:44;6.90;99.90
29817;DHT22;16805;52.956;5.906;2024-03-23T07:41:15;6.80;99.90
29817;DHT22;16805;52.956;5.906;2024-03-23T07:43:45;6.80;99.90
29817;DHT22;16805;52.956;5.906;2024-03-23T07:46:11;6.80;99.90
29817;DHT22;16805;52.956;5.906;2024-03-23T07:48:40;6.80;99.90
29817;DHT22;16805;52.956;5.906;2024-03-23T07:51:10;6.80;99.90
29817;DHT22;16805;52.956;5.906;2024-03-23T07:53:37;6.90;99.90
29817;DHT22;16805;52.956;5.906;2024-03-23T07:56:08;6.90;99.90
29817;DHT22;16805;52.956;5.906;2024-03-23T07:58:35;7.00;99.90
29817;DHT22;16805;52.956;5.906;2024-03-23T08:01:12;7.00;99.90
29817;DHT22;16805;52.956;5.906;2024-03-23T08:03:41;7.00;99.90
29817;DHT22;16805;52.956;5.906;2024-03-23T08:06:12;7.10;99.90
29817;DHT22;16805;52.956;5.906;2024-03-23T08:08:38;7.30;99.90
29817;DHT22;16805;52.956;5.906;2024-03-23T08:11:04;7.60;99.90
29817;DHT22;16805;52.956;5.906;2024-03-23T08:13:30;7.90;99.90
29817;DHT22;16805;52.956;5.906;2024-03-23T08:16:00;8.10;99.90
29817;DHT22;16805;52.956;5.906;2024-03-23T08:18:26;8.40;99.90
29817;DHT22;16805;52.956;5.906;2024-03-23T08:21:02;8.70;99.90
29817;DHT22;16805;52.956;5.906;2024-03-23T08:23:30;8.90;99.90
29817;DHT22;16805;52.956;5.906;2024-03-23T08:26:00;8.90;99.90
29817;DHT22;16805;52.956;5.906;2024-03-23T08:28:26;8.90;99.90
29817;DHT22;16805;52.956;5.906;2024-03-23T08:30:56;8.80;99.90
29817;DHT22;16805;52.956;5.906;2024-03-23T08:33:22;8.80;99.90
29817;DHT22;16805;52.956;5.906;2024-03-23T08:35:59;8.90;99.90
29817;DHT22;16805;52.956;5.906;2024-03-23T08:38:25;9.00;99.90
29817;DHT22;16805;52.956;5.906;2024-03-23T08:41:02;9.10;99.90
29817;DHT22;16805;52.956;5.906;2024-03-23T08:43:39;9.10;99.90
29817;DHT22;16805;52.956;5.906;2024-03-23T08:46:05;9.10;99.90
29817;DHT22;16805;52.956;5.906;2024-03-23T08:48:32;9.20;99.90
29817;DHT22;16805;52.956;5.906;2024-03-23T08:51:03;9.30;99.90
29817;DHT22;16805;52.956;5.906;2024-03-23T08:53:29;9.40;99.90
29817;DHT22;16805;52.956;5.906;2024-03-23T08:55:56;9.60;99.90
29817;DHT22;16805;52.956;5.906;2024-03-23T08:58:24;9.80;99.90
29817;DHT22;16805;52.956;5.906;2024-03-23T09:00:50;10.00;99.90
29817;DHT22;16805;52.956;5.906;2024-03-23T09:03:16;10.20;99.90
29817;DHT22;16805;52.956;5.906;2024-03-23T09:05:42;10.30;99.90
29817;DHT22;16805;52.956;5.906;2024-03-23T09:08:07;10.30;99.90
29817;DHT22;16805;52.956;5.906;2024-03-23T09:10:40;10.30;99.90
29817;DHT22;16805;52.956;5.906;2024-03-23T09:13:06;10.20;99.90
29817;DHT22;16805;52.956;5.906;2024-03-23T09:15:36;10.10;99.90
29817;DHT22;16805;52.956;5.906;2024-03-23T09:18:02;9.90;99.90
29817;DHT22;16805;52.956;5.906;2024-03-23T09:20:28;9.90;99.90
29817;DHT22;16805;52.956;5.906;2024-03-23T09:22:54;9.90;99.90
29817;DHT22;16805;52.956;5.906;2024-03-23T09:25:19;10.00;99.90
29817;DHT22;16805;52.956;5.906;2024-03-23T09:27:46;10.10;99.90
29817;DHT22;16805;52.956;5.906;2024-03-23T09:30:12;10.30;99.90
29817;DHT22;16805;52.956;5.906;2024-03-23T09:32:38;10.40;99.90
29817;DHT22;16805;52.956;5.906;2024-03-23T09:35:04;10.50;99.90
29817;DHT22;16805;52.956;5.906;2024-03-23T09:37:30;10.50;99.90
29817;DHT22;16805;52.956;5.906;2024-03-23T09:39:55;10.40;99.90
29817;DHT22;16805;52.956;5.906;2024-03-23T09:42:21;10.30;99.90
29817;DHT22;16805;52.956;5.906;2024-03-23T09:44:48;10.10;99.90
29817;DHT22;16805;52.956;5.906;2024-03-23T09:47:16;10.10;99.90
29817;DHT22;16805;52.956;5.906;2024-03-23T09:49:42;10.10;99.90
29817;DHT22;16805;52.956;5.906;2024-03-23T09:52:08;10.10;99.90
29817;DHT22;16805;52.956;5.906;2024-03-23T09:54:33;10.10;99.90
29817;DHT22;16805;52.956;5.906;2024-03-23T09:56:59;10.00;99.90
29817;DHT22;16805;52.956;5.906;2024-03-23T09:59:24;9.90;99.90
29817;DHT22;16805;52.956;5.906;2024-03-23T10:01:52;9.80;99.90
29817;DHT22;16805;52.956;5.906;2024-03-23T10:04:41;9.70;99.90
29817;DHT22;16805;52.956;5.906;2024-03-23T10:07:14;9.70;99.90
29817;DHT22;16805;52.956;5.906;2024-03-23T10:09:40;9.60;99.90
29817;DHT22;16805;52.956;5.906;2024-03-23T10:12:14;9.40;99.90
29817;DHT22;16805;52.956;5.906;2024-03-23T10:14:40;9.20;99.90
29817;DHT22;16805;52.956;5.906;2024-03-23T10:17:19;9.00;99.90
29817;DHT22;16805;52.956;5.906;2024-03-23T10:19:50;8.70;99.90
29817;DHT22;16805;52.956;5.906;2024-03-23T10:22:20;8.60;99.90
29817;DHT22;16805;52.956;5.906;2024-03-23T10:24:46;8.50;99.90
29817;DHT22;16805;52.956;5.906;2024-03-23T10:27:18;8.50;99.90
29817;DHT22;16805;52.956;5.906;2024-03-23T10:29:45;8.50;99.90
29817;DHT22;16805;52.956;5.906;2024-03-23T10:32:12;8.60;99.90
29817;DHT22;16805;52.956;5.906;2024-03-23T10:34:38;8.70;99.90
29817;DHT22;16805;52.956;5.906;2024-03-23T10:37:05;8.90;99.90
29817;DHT22;16805;52.956;5.906;2024-03-23T10:39:40;9.00;99.90
29817;DHT22;16805;52.956;5.906;2024-03-23T10:42:08;9.10;99.90
29817;DHT22;16805;52.956;5.906;2024-03-23T10:44:34;9.10;99.90
29817;DHT22;16805;52.956;5.906;2024-03-23T10:47:04;9.10;99.90
29817;DHT22;16805;52.956;5.906;2024-03-23T10:49:33;9.20;99.90
29817;DHT22;16805;52.956;5.906;2024-03-23T10:51:59;9.20;99.90
29817;DHT22;16805;52.956;5.906;2024-03-23T10:54:26;9.30;99.90
29817;DHT22;16805;52.956;5.906;2024-03-23T10:59:33;9.30;99.90
29817;DHT22;16805;52.956;5.906;2024-03-23T11:02:00;9.30;99.90
29817;DHT22;16805;52.956;5.906;2024-03-23T11:04:38;9.30;99.90
29817;DHT22;16805;52.956;5.906;2024-03-23T11:07:32;9.40;99.90
29817;DHT22;16805;52.956;5.906;2024-03-23T11:09:58;9.60;99.90
29817;DHT22;16805;52.956;5.906;2024-03-23T11:12:27;9.70;99.90
29817;DHT22;16805;52.956;5.906;2024-03-23T11:17:21;9.90;99.90
29817;DHT22;16805;52.956;5.906;2024-03-23T11:19:57;9.80;99.90
29817;DHT22;16805;52.956;5.906;2024-03-23T11:22:38;9.70;99.90
29817;DHT22;16805;52.956;5.906;2024-03-23T11:25:15;9.50;99.90
29817;DHT22;16805;52.956;5.906;2024-03-23T11:27:40;9.30;99.90
29817;DHT22;16805;52.956;5.906;2024-03-23T11:30:17;9.10;99.90
29817;DHT22;16805;52.956;5.906;2024-03-23T11:32:44;9.00;99.90
29817;DHT22;16805;52.956;5.906;2024-03-23T11:35:24;8.80;99.90
29817;DHT22;16805;52.956;5.906;2024-03-23T11:38:02;8.70;99.90
29817;DHT22;16805;52.956;5.906;2024-03-23T11:40:27;8.60;99.90
29817;DHT22;16805;52.956;5.906;2024-03-23T11:43:00;8.60;99.90
29817;DHT22;16805;52.956;5.906;2024-03-23T11:45:26;8.50;99.90
29817;DHT22;16805;52.956;5.906;2024-03-23T11:48:02;8.40;99.90
29817;DHT22;16805;52.956;5.906;2024-03-23T11:50:28;8.40;99.90
29817;DHT22;16805;52.956;5.906;2024-03-23T11:53:06;8.40;99.90
29817;DHT22;16805;52.956;5.906;2024-03-23T11:56:00;8.50;99.90
29817;DHT22;16805;52.956;5.906;2024-03-23T11:58:27;8.60;99.90
29817;DHT22;16805;52.956;5.906;2024-03-23T12:01:03;8.70;99.90
29817;DHT22;16805;52.956;5.906;2024-03-23T12:03:29;8.80;99.90
29817;DHT22;16805;52.956;5.906;2024-03-23T12:05:57;8.90;99.90
29817;DHT22;16805;52.956;5.906;2024-03-23T12:08:33;8.90;99.90
29817;DHT22;16805;52.956;5.906;2024-03-23T12:11:09;9.00;99.90
29817;DHT22;16805;52.956;5.906;2024-03-23T12:13:37;9.10;99.90
29817;DHT22;16805;52.956;5.906;2024-03-23T12:16:14;9.30;99.90
29817;DHT22;16805;52.956;5.906;2024-03-23T12:18:41;9.40;99.90
29817;DHT22;16805;52.956;5.906;2024-03-23T12:21:07;9.50;99.90
29817;DHT22;16805;52.956;5.906;2024-03-23T12:23:33;9.60;99.90
29817;DHT22;16805;52.956;5.906;2024-03-23T12:25:59;9.70;99.90
29817;DHT22;16805;52.956;5.906;2024-03-23T12:28:24;9.70;99.90
29817;DHT22;16805;52.956;5.906;2024-03-23T12:30:51;9.70;99.90
29817;DHT22;16805;52.956;5.906;2024-03-23T12:33:18;9.70;99.90
29817;DHT22;16805;52.956;5.906;2024-03-23T12:35:43;9.60;99.90
29817;DHT22;16805;52.956;5.906;2024-03-23T12:38:10;9.60;99.90
29817;DHT22;16805;52.956;5.906;2024-03-23T12:40:36;9.60;99.90
29817;DHT22;16805;52.956;5.906;2024-03-23T12:43:01;9.70;99.90
29817;DHT22;16805;52.956;5.906;2024-03-23T12:45:27;9.70;99.90
29817;DHT22;16805;52.956;5.906;2024-03-23T12:47:52;9.70;99.90
29817;DHT22;16805;52.956;5.906;2024-03-23T12:50:19;9.80;99.90
29817;DHT22;16805;52.956;5.906;2024-03-23T12:52:45;9.80;99.90
29817;DHT22;16805;52.956;5.906;2024-03-23T12:55:10;9.90;99.90
29817;DHT22;16805;52.956;5.906;2024-03-23T12:57:36;9.90;99.90
29817;DHT22;16805;52.956;5.906;2024-03-23T13:00:03;9.80;99.90
29817;DHT22;16805;52.956;5.906;2024-03-23T13:02:29;9.80;99.90
29817;DHT22;16805;52.956;5.906;2024-03-23T13:04:55;9.80;99.90
29817;DHT22;16805;52.956;5.906;2024-03-23T13:07:22;9.70;99.90
29817;DHT22;16805;52.956;5.906;2024-03-23T13:09:51;9.60;99.90
29817;DHT22;16805;52.956;5.906;2024-03-23T13:12:17;9.60;99.90
29817;DHT22;16805;52.956;5.906;2024-03-23T13:14:44;9.50;99.90
29817;DHT22;16805;52.956;5.906;2024-03-23T13:17:11;9.50;99.90
29817;DHT22;16805;52.956;5.906;2024-03-23T13:19:37;9.50;99.90
29817;DHT22;16805;52.956;5.906;2024-03-23T13:22:07;9.60;99.90
29817;DHT22;16805;52.956;5.906;2024-03-23T13:24:39;9.60;99.90
29817;DHT22;16805;52.956;5.906;2024-03-23T13:27:23;9.60;99.90
29817;DHT22;16805;52.956;5.906;2024-03-23T13:29:51;9.60;99.90
29817;DHT22;16805;52.956;5.906;2024-03-23T13:32:17;9.70;99.90
29817;DHT22;16805;52.956;5.906;2024-03-23T13:34:43;9.60;99.90
29817;DHT22;16805;52.956;5.906;2024-03-23T13:37:09;9.60;99.90
29817;DHT22;16805;52.956;5.906;2024-03-23T13:39:35;9.60;99.90
29817;DHT22;16805;52.956;5.906;2024-03-23T13:42:01;9.60;99.90
29817;DHT22;16805;52.956;5.906;2024-03-23T13:44:26;9.60;99.90
29817;DHT22;16805;52.956;5.906;2024-03-23T13:46:53;9.60;99.90
29817;DHT22;16805;52.956;5.906;2024-03-23T13:49:29;9.70;99.90
29817;DHT22;16805;52.956;5.906;2024-03-23T13:51:56;9.70;99.90
29817;DHT22;16805;52.956;5.906;2024-03-23T13:54:23;9.80;99.90
29817;DHT22;16805;52.956;5.906;2024-03-23T13:56:53;9.70;99.90
29817;DHT22;16805;52.956;5.906;2024-03-23T13:59:22;9.70;99.90
29817;DHT22;16805;52.956;5.906;2024-03-23T14:01:49;9.60;99.90
29817;DHT22;16805;52.956;5.906;2024-03-23T14:04:14;9.60;99.90
29817;DHT22;16805;52.956;5.906;2024-03-23T14:06:46;9.50;99.90
29817;DHT22;16805;52.956;5.906;2024-03-23T14:09:15;9.50;99.90
29817;DHT22;16805;52.956;5.906;2024-03-23T14:11:46;9.40;99.90
29817;DHT22;16805;52.956;5.906;2024-03-23T14:14:11;9.40;99.90
29817;DHT22;16805;52.956;5.906;2024-03-23T14:16:37;9.50;99.90
29817;DHT22;16805;52.956;5.906;2024-03-23T14:19:02;9.40;99.90
29817;DHT22;16805;52.956;5.906;2024-03-23T14:21:30;9.40;99.90
29817;DHT22;16805;52.956;5.906;2024-03-23T14:23:55;9.40;99.90
29817;DHT22;16805;52.956;5.906;2024-03-23T14:26:21;9.50;99.90
29817;DHT22;16805;52.956;5.906;2024-03-23T14:28:46;9.50;99.90
29817;DHT22;16805;52.956;5.906;2024-03-23T14:31:12;9.60;99.90
29817;DHT22;16805;52.956;5.906;2024-03-23T14:33:38;9.60;99.90
29817;DHT22;16805;52.956;5.906;2024-03-23T14:36:12;9.60;99.90
29817;DHT22;16805;52.956;5.906;2024-03-23T14:38:38;9.60;99.90
29817;DHT22;16805;52.956;5.906;2024-03-23T14:41:04;9.60;99.90
29817;DHT22;16805;52.956;5.906;2024-03-23T14:43:30;9.60;99.90
29817;DHT22;16805;52.956;5.906;2024-03-23T14:46:12;9.60;99.90
29817;DHT22;16805;52.956;5.906;2024-03-23T14:48:39;9.60;99.90
29817;DHT22;16805;52.956;5.906;2024-03-23T14:51:05;9.50;99.90
29817;DHT22;16805;52.956;5.906;2024-03-23T14:53:32;9.40;99.90
29817;DHT22;16805;52.956;5.906;2024-03-23T14:55:59;9.30;99.90
29817;DHT22;16805;52.956;5.906;2024-03-23T14:58:26;9.10;99.90
29817;DHT22;16805;52.956;5.906;2024-03-23T15:00:51;9.00;99.90
29817;DHT22;16805;52.956;5.906;2024-03-23T15:03:17;9.00;99.90
29817;DHT22;16805;52.956;5.906;2024-03-23T15:06:00;8.90;99.90
29817;DHT22;16805;52.956;5.906;2024-03-23T15:08:27;8.90;99.90
29817;DHT22;16805;52.956;5.906;2024-03-23T15:11:00;8.90;99.90
29817;DHT22;16805;52.956;5.906;2024-03-23T15:13:26;8.90;99.90
29817;DHT22;16805;52.956;5.906;2024-03-23T15:15:52;8.90;99.90
29817;DHT22;16805;52.956;5.906;2024-03-23T15:18:18;8.90;99.90
29817;DHT22;16805;52.956;5.906;2024-03-23T15:20:59;8.90;99.90
29817;DHT22;16805;52.956;5.906;2024-03-23T15:23:36;8.90;99.90
29817;DHT22;16805;52.956;5.906;2024-03-23T15:26:02;8.90;99.90
29817;DHT22;16805;52.956;5.906;2024-03-23T15:28:30;8.80;99.90
29817;DHT22;16805;52.956;5.906;2024-03-23T15:31:14;8.80;99.90
29817;DHT22;16805;52.956;5.906;2024-03-23T15:33:39;8.80;99.90
29817;DHT22;16805;52.956;5.906;2024-03-23T15:36:05;8.80;99.90
29817;DHT22;16805;52.956;5.906;2024-03-23T15:38:33;8.80;99.90
29817;DHT22;16805;52.956;5.906;2024-03-23T15:40:58;8.80;99.90
29817;DHT22;16805;52.956;5.906;2024-03-23T15:43:24;8.70;99.90
29817;DHT22;16805;52.956;5.906;2024-03-23T15:46:00;8.70;99.90
29817;DHT22;16805;52.956;5.906;2024-03-23T15:48:27;8.70;99.90
29817;DHT22;16805;52.956;5.906;2024-03-23T15:50:59;8.70;99.90
29817;DHT22;16805;52.956;5.906;2024-03-23T15:53:26;8.70;99.90
29817;DHT22;16805;52.956;5.906;2024-03-23T15:55:56;8.70;99.90
29817;DHT22;16805;52.956;5.906;2024-03-23T15:58:22;8.70;99.90
29817;DHT22;16805;52.956;5.906;2024-03-23T16:07:53;8.80;99.90
29817;DHT22;16805;52.956;5.906;2024-03-23T16:13:19;8.70;99.90
29817;DHT22;16805;52.956;5.906;2024-03-23T16:15:57;8.70;99.90
29817;DHT22;16805;52.956;5.906;2024-03-23T16:18:29;8.70;99.90
29817;DHT22;16805;52.956;5.906;2024-03-23T16:20:56;8.70;99.90
29817;DHT22;16805;52.956;5.906;2024-03-23T16:23:25;8.70;99.90
29817;DHT22;16805;52.956;5.906;2024-03-23T16:25:53;8.70;99.90
29817;DHT22;16805;52.956;5.906;2024-03-23T16:28:33;8.60;99.90
29817;DHT22;16805;52.956;5.906;2024-03-23T16:31:06;8.70;99.90
29817;DHT22;16805;52.956;5.906;2024-03-23T16:33:38;8.60;99.90
29817;DHT22;16805;52.956;5.906;2024-03-23T16:36:08;8.70;99.90
29817;DHT22;16805;52.956;5.906;2024-03-23T16:38:46;8.70;99.90
29817;DHT22;16805;52.956;5.906;2024-03-23T16:41:32;8.70;99.90
29817;DHT22;16805;52.956;5.906;2024-03-23T16:43:59;8.70;99.90
29817;DHT22;16805;52.956;5.906;2024-03-23T16:46:25;8.70;99.90
29817;DHT22;16805;52.956;5.906;2024-03-23T16:48:51;8.60;99.90
29817;DHT22;16805;52.956;5.906;2024-03-23T16:51:16;8.50;99.90
29817;DHT22;16805;52.956;5.906;2024-03-23T16:53:42;8.50;99.90
29817;DHT22;16805;52.956;5.906;2024-03-23T16:56:10;8.50;99.90
29817;DHT22;16805;52.956;5.906;2024-03-23T16:58:37;8.50;99.90
29817;DHT22;16805;52.956;5.906;2024-03-23T17:01:06;8.40;99.90
29817;DHT22;16805;52.956;5.906;2024-03-23T17:03:37;8.40;99.90
29817;DHT22;16805;52.956;5.906;2024-03-23T17:06:04;8.30;99.90
29817;DHT22;16805;52.956;5.906;2024-03-23T17:08:30;8.20;99.90
29817;DHT22;16805;52.956;5.906;2024-03-23T17:11:00;8.20;99.90
29817;DHT22;16805;52.956;5.906;2024-03-23T17:13:27;8.20;99.90
29817;DHT22;16805;52.956;5.906;2024-03-23T17:15:52;8.20;99.90
29817;DHT22;16805;52.956;5.906;2024-03-23T17:18:18;8.10;99.90
29817;DHT22;16805;52.956;5.906;2024-03-23T17:20:44;8.10;99.90
29817;DHT22;16805;52.956;5.906;2024-03-23T17:23:10;8.10;99.90
29817;DHT22;16805;52.956;5.906;2024-03-23T17:25:36;8.00;99.90
29817;DHT22;16805;52.956;5.906;2024-03-23T17:28:03;8.00;99.90
29817;DHT22;16805;52.956;5.906;2024-03-23T17:30:28;8.00;99.90
29817;DHT22;16805;52.956;5.906;2024-03-23T17:32:54;8.00;99.90
29817;DHT22;16805;52.956;5.906;2024-03-23T17:35:19;8.00;99.90
29817;DHT22;16805;52.956;5.906;2024-03-23T17:37:45;8.00;99.90
29817;DHT22;16805;52.956;5.906;2024-03-23T17:40:11;8.00;99.90
29817;DHT22;16805;52.956;5.906;2024-03-23T17:42:38;8.00;99.90